Time;durP1;ratioP1;P1;durP2;ratioP2;P2;SDS_P1;SDS_P2;PMS_P1;PMS_P2;Temp;Humidity;BMP_temperature;BMP_pressure;BME280_temperature;BME280_humidity;BME280_pressure;Samples;Min_cycle;Max_cycle;Signal;HPM_P1;HPM_P2
2022/01/18 00:01:30;;;;;;;11.43;4.33;;;;;;;-0.58;77.86;102055.80;1811677;77;21087;-76
2022/01/18 00:03:57;;;;;;;10.10;3.60;;;;;;;-0.87;77.91;102002.73;1846296;77;21055;-75
2022/01/18 00:06:24;;;;;;;8.68;3.40;;;;;;;-0.57;78.01;102056.31;1777736;80;21716;-76
2022/01/18 00:08:50;;;;;;;6.87;3.72;;;;;;;-0.55;78.00;102061.63;1845885;77;21645;-75
2022/01/18 00:11:25;;;;;;;10.93;3.80;;;;;;;-0.54;78.03;102066.05;1817466;77;21094;-75
2022/01/18 00:13:58;;;;;;;7.47;3.52;;;;;;;-0.54;78.03;102072.52;1854172;76;20969;-75
2022/01/18 00:16:30;;;;;;;10.65;3.52;;;;;;;-0.54;78.03;102077.69;1824205;77;20997;-75
2022/01/18 00:18:58;;;;;;;10.28;3.42;;;;;;;-0.55;78.02;102084.91;1855611;76;21819;-75
2022/01/18 00:21:35;;;;;;;7.05;3.17;;;;;;;-0.54;78.14;102085.45;1855720;77;21483;-76
2022/01/18 00:24:00;;;;;;;10.53;3.60;;;;;;;-0.53;78.15;102095.91;1854345;76;21114;-75
2022/01/18 00:26:31;;;;;;;7.92;3.30;;;;;;;-0.53;78.17;102085.95;1854503;77;21056;-75
2022/01/18 00:29:05;;;;;;;7.72;3.08;;;;;;;-0.53;78.23;102081.67;1855938;77;21122;-75
2022/01/18 00:31:50;;;;;;;10.53;3.58;;;;;;;-0.52;78.27;102080.92;1855404;77;22588;-76
2022/01/18 00:34:23;;;;;;;8.25;2.75;;;;;;;-0.50;78.34;102080.67;1853977;77;21039;-76
2022/01/18 00:39:22;;;;;;;8.00;2.97;;;;;;;-0.49;78.37;102078.98;1855872;77;21056;-75
2022/01/18 00:41:47;;;;;;;6.78;3.30;;;;;;;-0.49;78.40;102084.16;1854902;77;21056;-76
2022/01/18 00:44:14;;;;;;;5.90;2.75;;;;;;;-0.50;78.46;102085.84;1855722;77;21836;-76
2022/01/18 00:46:45;;;;;;;7.92;3.20;;;;;;;-0.50;78.49;102095.30;1855186;77;21113;-76
2022/01/18 00:49:15;;;;;;;10.20;2.70;;;;;;;-0.51;78.54;102094.75;1855450;77;21043;-76
2022/01/18 00:51:41;;;;;;;9.03;2.85;;;;;;;-0.50;78.58;102103.05;1854688;77;21117;-74
2022/01/18 00:54:13;;;;;;;8.35;3.83;;;;;;;-0.51;78.71;102111.17;1855630;77;21055;-75
2022/01/18 00:56:43;;;;;;;7.63;3.03;;;;;;;-0.50;78.77;102102.66;1826022;77;21091;-75
2022/01/18 00:59:09;;;;;;;8.50;3.05;;;;;;;-0.48;78.79;102092.06;1855467;77;21016;-75
2022/01/18 01:01:39;;;;;;;6.50;2.55;;;;;;;-0.46;78.86;102088.33;1855760;77;21027;-75
2022/01/18 01:04:05;;;;;;;11.95;2.85;;;;;;;-0.46;78.90;102080.17;1854934;77;21047;-75
2022/01/18 01:06:34;;;;;;;9.30;3.08;;;;;;;-0.45;78.96;102084.95;1843720;77;21605;-75
2022/01/18 01:09:02;;;;;;;5.95;2.72;;;;;;;-0.45;79.02;102087.18;1843687;77;21774;-75
2022/01/18 01:11:32;;;;;;;8.43;2.87;;;;;;;-0.43;79.06;102093.40;1835264;77;21080;-76
2022/01/18 01:14:02;;;;;;;5.92;2.72;;;;;;;-0.42;79.12;102106.84;1820984;78;21044;-75
2022/01/18 01:43:29;;;;;;;5.20;2.15;;;;;;;-0.21;79.64;102149.30;1804036;78;21033;-75
2022/01/18 01:45:58;;;;;;;5.67;2.25;;;;;;;-0.19;79.71;102146.83;1803954;79;21508;-75
2022/01/18 01:48:26;;;;;;;7.05;3.05;;;;;;;-0.18;79.63;102154.23;1804053;78;21753;-75
2022/01/18 01:51:11;;;;;;;7.78;2.47;;;;;;;-0.17;79.63;102161.20;1804370;78;21634;-75
2022/01/18 01:53:24;;;;;;;9.65;2.50;;;;;;;-0.16;79.68;102168.21;1801563;78;22305;-75
2022/01/18 01:55:53;;;;;;;8.98;2.85;;;;;;;-0.16;79.66;102176.88;1803761;79;21057;-75
2022/01/18 01:58:21;;;;;;;4.60;1.98;;;;;;;-0.15;79.71;102176.13;1804119;79;21048;-75
2022/01/18 02:00:54;;;;;;;4.45;1.90;;;;;;;-0.12;79.79;102184.14;1804116;78;21908;-74
2022/01/18 02:03:20;;;;;;;8.13;2.72;;;;;;;-0.08;79.80;102174.98;1803810;78;21049;-74
2022/01/18 02:05:47;;;;;;;10.88;2.90;;;;;;;-0.05;79.83;102163.23;1804370;78;21543;-75
2022/01/18 02:08:18;;;;;;;7.08;2.12;;;;;;;-0.03;79.77;102160.39;1804268;78;21300;-74
2022/01/18 02:10:43;;;;;;;10.28;2.50;;;;;;;-0.01;79.79;102156.25;1803956;79;21555;-73
2022/01/18 02:13:12;;;;;;;6.17;2.00;;;;;;;0.02;79.76;102158.59;1776675;79;21062;-74
2022/01/18 02:15:46;;;;;;;8.53;2.42;;;;;;;0.02;79.69;102162.47;1803721;79;21050;-73
2022/01/18 02:23:38;;;;;;;9.15;2.33;;;;;;;0.01;79.67;102191.34;1782348;80;21578;-74
2022/01/18 02:26:05;;;;;;;5.55;2.40;;;;;;;0.01;79.70;102193.03;1804570;79;21694;-75
2022/01/18 02:28:31;;;;;;;7.10;2.20;;;;;;;0.01;79.70;102201.70;1804145;79;21092;-74
2022/01/18 02:30:58;;;;;;;9.60;2.47;;;;;;;0.01;79.69;102201.70;1804536;78;21536;-74
2022/01/18 02:33:25;;;;;;;7.62;2.20;;;;;;;0.02;79.67;102207.42;1804163;78;21108;-74
2022/01/18 02:35:51;;;;;;;8.08;2.50;;;;;;;0.03;79.73;102201.45;1804409;79;21072;-73
2022/01/18 02:38:18;;;;;;;8.75;2.30;;;;;;;0.04;79.71;102205.88;1804132;78;21878;-74
2022/01/18 02:40:45;;;;;;;4.75;1.92;;;;;;;0.03;79.65;102200.55;1804436;78;22213;-74
2022/01/18 02:45:59;;;;;;;6.80;2.62;;;;;;;0.01;79.66;102213.34;1804217;78;21556;-75
2022/01/18 02:48:26;;;;;;;8.95;2.42;;;;;;;0.01;79.66;102215.94;1804650;79;21034;-75
2022/01/18 02:50:54;;;;;;;8.48;2.30;;;;;;;0.00;79.65;102227.08;1776501;79;21606;-75
2022/01/18 02:53:24;;;;;;;7.53;2.40;;;;;;;-0.02;79.71;102224.34;1804417;78;21033;-75
2022/01/18 02:58:43;;;;;;;6.92;2.25;;;;;;;-0.02;79.67;102213.05;1701354;82;21078;-75
2022/01/18 03:03:55;;;;;;;7.42;2.05;;;;;;;-0.04;79.68;102223.66;1701003;83;21747;-75
2022/01/18 03:06:24;;;;;;;8.60;2.15;;;;;;;-0.04;79.69;102222.36;1700754;83;21075;-75
2022/01/18 03:08:50;;;;;;;7.20;2.33;;;;;;;-0.04;79.72;102223.66;1701348;83;21138;-76
2022/01/18 03:11:17;;;;;;;8.50;2.60;;;;;;;-0.03;79.74;102227.69;1701324;82;21464;-75
2022/01/18 03:13:44;;;;;;;7.45;2.50;;;;;;;-0.03;79.74;102233.27;1701186;83;21153;-75
2022/01/18 03:16:13;;;;;;;7.22;2.40;;;;;;;-0.02;79.72;102238.94;1700954;83;21085;-75
2022/01/18 03:18:40;;;;;;;6.55;2.00;;;;;;;-0.12;79.71;102222.06;1701386;82;22318;-75
2022/01/18 03:21:10;;;;;;;8.65;1.60;;;;;;;-0.03;79.74;102238.05;1677071;84;21066;-76
2022/01/18 03:23:37;;;;;;;5.37;2.02;;;;;;;-0.03;79.74;102240.63;1735841;81;21022;-75
2022/01/18 03:26:14;;;;;;;5.55;1.92;;;;;;;-0.01;79.75;102247.25;1747167;80;21070;-76
2022/01/18 03:28:32;;;;;;;7.22;2.37;;;;;;;-0.01;79.76;102242.07;1745355;80;21793;-76
2022/01/18 03:30:59;;;;;;;8.05;2.15;;;;;;;0.00;79.76;102241.31;1747303;80;21050;-76
2022/01/18 03:33:28;;;;;;;5.60;1.65;;;;;;;0.01;79.74;102247.00;1747176;80;21097;-76
2022/01/18 03:35:58;;;;;;;7.45;2.10;;;;;;;0.01;79.76;102243.52;1746973;82;21026;-76
2022/01/18 03:38:32;;;;;;;8.83;2.20;;;;;;;0.02;79.80;102252.72;1747173;82;21077;-75
2022/01/18 03:41:02;;;;;;;11.03;2.12;;;;;;;0.01;79.75;102253.47;1747587;81;21438;-76
2022/01/18 03:43:31;;;;;;;8.18;2.27;;;;;;;0.02;79.79;102260.84;1745969;81;21085;-76
2022/01/18 03:46:02;;;;;;;8.73;2.02;;;;;;;0.04;79.76;102268.36;1746968;80;21508;-75
2022/01/18 03:48:35;;;;;;;8.50;2.05;;;;;;;0.04;79.76;102267.07;1746873;82;21046;-76
2022/01/18 03:51:04;;;;;;;6.08;1.98;;;;;;;0.03;79.73;102266.56;1747125;82;22104;-76
2022/01/18 03:53:34;;;;;;;9.03;2.15;;;;;;;0.01;79.70;102269.00;1747216;82;21273;-75
2022/01/18 03:55:59;;;;;;;6.97;2.27;;;;;;;0.01;79.71;102271.98;1746352;82;21054;-74
2022/01/18 03:58:26;;;;;;;6.47;2.22;;;;;;;0.01;79.71;102273.28;1746688;80;21089;-74
2022/01/18 04:00:53;;;;;;;10.15;3.08;;;;;;;0.00;79.74;102276.27;1746997;81;21062;-75
2022/01/18 04:03:21;;;;;;;6.53;2.25;;;;;;;0.01;79.74;102274.58;1721283;82;21069;-74
2022/01/18 04:05:52;;;;;;;9.63;1.85;;;;;;;0.00;79.75;102284.03;1747448;80;21352;-74
2022/01/18 04:08:25;;;;;;;4.83;1.98;;;;;;;0.01;79.78;102292.30;1746883;80;21062;-74
2022/01/18 04:10:52;;;;;;;5.87;2.37;;;;;;;0.01;79.75;102295.28;1747523;80;21053;-74
2022/01/18 04:13:18;;;;;;;3.75;1.95;;;;;;;-0.02;79.66;102298.13;1747246;81;21126;-74
2022/01/18 04:15:45;;;;;;;7.70;2.22;;;;;;;-0.04;79.67;102304.84;1747255;80;21599;-74
2022/01/18 04:28:59;;;;;;;7.80;2.20;;;;;;;-0.08;79.67;102312.16;1724193;82;21121;-74
2022/01/18 04:31:25;;;;;;;;;;;;;;;-0.10;79.68;102324.05;1749397;81;21677;-73
2022/01/18 04:33:55;;;;;;;7.25;2.40;;;;;;;-0.13;79.66;102326.34;1747213;80;20590;-74
2022/01/18 04:36:21;;;;;;;7.30;2.08;;;;;;;-0.15;79.67;102331.41;1747089;80;21058;-74
2022/01/18 04:38:48;;;;;;;7.12;2.58;;;;;;;-0.17;79.67;102332.91;1747254;82;21362;-74
2022/01/18 04:41:18;;;;;;;7.22;2.50;;;;;;;-0.20;79.66;102337.82;1747217;80;21053;-73
2022/01/18 04:48:55;;;;;;;8.00;2.80;;;;;;;-0.28;79.68;102359.09;1745559;82;21077;-74
2022/01/18 04:51:21;;;;;;;7.67;2.92;;;;;;;-0.32;79.68;102364.76;1745830;80;20995;-74
2022/01/18 04:53:55;;;;;;;12.55;3.60;;;;;;;-0.34;79.73;102366.26;1746027;81;21517;-74
2022/01/18 04:58:53;;;;;;;8.65;3.72;;;;;;;-0.34;79.85;102376.61;1694356;80;21715;-74
2022/01/18 05:01:19;;;;;;;10.30;3.75;;;;;;;-0.34;79.87;102386.95;1782577;80;21343;-74
2022/01/18 05:03:46;;;;;;;11.60;4.05;;;;;;;-0.31;79.96;102387.66;1782830;80;21062;-79
2022/01/18 05:06:18;;;;;;;13.20;4.42;;;;;;;-0.31;79.92;102381.18;1782573;80;21043;-80
2022/01/18 05:08:45;;;;;;;14.65;5.30;;;;;;;-0.32;79.90;102384.16;1782672;80;21911;-80
2022/01/18 05:11:22;;;;;;;11.28;5.28;;;;;;;-0.32;79.92;102384.16;1755402;80;21038;-80
2022/01/18 05:19:25;;;;;;;13.30;4.47;;;;;;;-0.33;79.94;102393.06;1705193;80;21093;-80
2022/01/18 05:24:24;;;;;;;13.43;4.25;;;;;;;-0.35;79.92;102395.50;1783169;80;21019;-78
2022/01/18 05:26:54;;;;;;;11.63;4.62;;;;;;;-0.36;79.94;102402.72;1783206;80;21018;-80
2022/01/18 05:29:30;;;;;;;8.90;3.52;;;;;;;-0.36;79.96;102395.34;1782618;79;21118;-80
2022/01/18 05:31:56;;;;;;;11.10;3.52;;;;;;;-0.35;79.96;102401.07;1780276;80;21050;-79
2022/01/18 05:34:23;;;;;;;8.80;3.55;;;;;;;-0.35;79.98;102408.83;1783449;79;21106;-78
2022/01/18 05:36:50;;;;;;;8.63;3.62;;;;;;;-0.35;79.98;102413.61;1783102;80;21084;-77
2022/01/18 05:39:18;;;;;;;10.78;4.35;;;;;;;-0.35;80.01;102412.32;1782756;80;21062;-79
2022/01/18 05:41:45;;;;;;;17.45;4.70;;;;;;;-0.34;79.99;102413.22;1782696;80;21117;-80
2022/01/18 05:44:13;;;;;;;9.93;4.45;;;;;;;-0.33;80.00;102412.47;1782345;79;21053;-79
2022/01/18 05:46:40;;;;;;;13.38;4.87;;;;;;;-0.33;79.99;102416.35;1782918;80;21735;-79
2022/01/18 05:49:08;;;;;;;18.73;5.72;;;;;;;-0.32;80.02;102419.09;1755473;80;21108;-79
2022/01/18 05:51:37;;;;;;;14.80;4.72;;;;;;;-0.31;79.98;102421.29;1783030;80;21089;-79
2022/01/18 05:54:06;;;;;;;14.68;4.47;;;;;;;-0.32;79.96;102428.15;1755935;80;21094;-79
2022/01/18 05:56:35;;;;;;;16.62;6.28;;;;;;;-0.33;79.94;102434.08;1782757;80;21129;-79
2022/01/18 05:59:06;;;;;;;23.80;6.92;;;;;;;-0.33;79.89;102444.42;1776657;79;21149;-80
2022/01/18 06:01:35;;;;;;;16.40;6.35;;;;;;;-0.35;79.89;102448.55;1777977;80;21580;-78
2022/01/18 06:04:13;;;;;;;16.27;5.28;;;;;;;-0.36;79.89;102448.00;1751271;80;21070;-79
2022/01/18 06:06:51;;;;;;;15.68;5.30;;;;;;;-0.37;79.90;102443.61;1724604;81;21108;-79
2022/01/18 06:09:19;;;;;;;10.88;4.40;;;;;;;-0.37;79.89;102462.11;1757144;80;21158;-79
2022/01/18 06:11:47;;;;;;;10.82;4.08;;;;;;;-0.36;79.96;102461.33;1780785;79;21049;-79
2022/01/18 06:14:16;;;;;;;14.83;4.28;;;;;;;-0.44;80.00;102452.44;1781464;80;21080;-79
2022/01/18 06:16:44;;;;;;;13.83;4.62;;;;;;;-0.32;80.02;102478.96;1752171;80;21057;-79
2022/01/18 06:19:11;;;;;;;11.97;4.42;;;;;;;-0.30;80.09;102480.95;1780819;80;21069;-79
2022/01/18 06:21:39;;;;;;;13.80;4.70;;;;;;;-0.24;80.07;102485.42;1780965;80;21686;-78
2022/01/18 06:24:09;;;;;;;16.15;5.03;;;;;;;-0.18;80.08;102488.08;1782040;80;21794;-79
2022/01/18 06:26:35;;;;;;;13.08;4.10;;;;;;;-0.12;80.10;102496.03;1781633;80;21064;-79
2022/01/18 06:29:02;;;;;;;10.82;3.80;;;;;;;-0.07;80.03;102498.69;1781869;80;21092;-79
2022/01/18 06:31:29;;;;;;;12.45;4.37;;;;;;;-0.01;80.10;102495.77;1781495;80;21120;-79
2022/01/18 06:33:59;;;;;;;9.28;4.25;;;;;;;0.07;80.08;102501.28;1781591;80;21097;-79
2022/01/18 06:36:26;;;;;;;11.20;4.12;;;;;;;0.13;80.05;102500.95;1781313;80;21760;-79
2022/01/18 06:38:54;;;;;;;10.95;4.75;;;;;;;0.18;79.96;102500.63;1751737;80;21069;-79
2022/01/18 06:41:21;;;;;;;12.43;4.20;;;;;;;0.23;79.87;102511.83;1781217;80;21690;-79
2022/01/18 06:43:51;;;;;;;13.53;4.12;;;;;;;0.28;79.85;102511.50;1781506;80;21058;-79
2022/01/18 06:46:22;;;;;;;11.43;4.55;;;;;;;0.33;79.74;102519.30;1781485;79;21889;-79
2022/01/18 06:48:47;;;;;;;16.23;8.55;;;;;;;0.38;79.68;102523.63;1780154;80;22624;-79
2022/01/18 06:51:14;;;;;;;14.75;6.12;;;;;;;0.41;79.60;102533.36;1781200;80;21344;-79
2022/01/18 06:53:46;;;;;;;13.53;5.17;;;;;;;0.42;79.55;102536.10;1781416;80;21092;-79
2022/01/18 06:56:13;;;;;;;14.55;5.62;;;;;;;0.46;79.49;102547.67;1779800;80;21714;-79
2022/01/18 06:58:39;;;;;;;15.88;6.25;;;;;;;0.46;79.38;102544.69;1782644;78;21475;-79
2022/01/18 07:01:09;;;;;;;14.25;6.53;;;;;;;0.46;79.29;102555.05;1786015;79;21981;-79
2022/01/18 07:03:38;;;;;;;17.48;6.55;;;;;;;0.46;79.25;102554.15;1786053;79;21159;-79
2022/01/18 07:06:06;;;;;;;17.45;6.75;;;;;;;0.48;79.24;102568.16;1785916;80;21069;-79
2022/01/18 07:08:36;;;;;;;15.23;6.75;;;;;;;0.50;79.22;102579.18;1757859;80;21066;-79
2022/01/18 07:11:01;;;;;;;20.32;7.33;;;;;;;0.52;79.20;102574.15;1785955;79;21064;-79
2022/01/18 07:13:28;;;;;;;19.40;7.42;;;;;;;0.53;79.11;102585.06;1786095;80;21901;-79
2022/01/18 07:15:55;;;;;;;18.50;6.92;;;;;;;0.52;79.05;102584.12;1785974;79;21080;-80
2022/01/18 07:18:23;;;;;;;19.80;7.15;;;;;;;0.52;79.03;102587.11;1751574;80;21072;-80
2022/01/18 07:20:52;;;;;;;17.62;7.70;;;;;;;0.50;78.92;102591.23;1751765;80;21065;-80
2022/01/18 07:23:20;;;;;;;18.48;7.87;;;;;;;0.46;78.80;102597.80;1786132;79;21052;-79
2022/01/18 07:25:48;;;;;;;18.35;7.35;;;;;;;0.41;78.76;102599.03;1751921;80;21212;-79
2022/01/18 07:28:17;;;;;;;24.52;8.75;;;;;;;0.38;78.87;102602.25;1786324;80;21146;-79
2022/01/18 07:30:46;;;;;;;24.18;9.33;;;;;;;0.36;78.86;102599.91;1786041;80;21177;-79
2022/01/18 07:33:13;;;;;;;22.60;10.10;;;;;;;0.34;78.82;102600.14;1786406;80;21053;-79
2022/01/18 07:35:40;;;;;;;24.30;10.05;;;;;;;0.30;78.83;102605.80;1786326;80;21080;-79
2022/01/18 07:38:07;;;;;;;23.95;10.25;;;;;;;0.28;78.83;102607.69;1786273;80;21752;-79
2022/01/18 07:40:33;;;;;;;26.07;11.30;;;;;;;0.25;78.82;102610.01;1786177;79;21077;-79
2022/01/18 07:43:01;;;;;;;23.42;10.43;;;;;;;0.23;78.84;102616.72;1786350;79;21764;-79
2022/01/18 07:45:29;;;;;;;23.50;10.23;;;;;;;0.22;78.88;102613.58;1753119;80;21081;-79
2022/01/18 07:47:56;;;;;;;23.00;9.78;;;;;;;0.20;78.90;102614.72;1786226;80;21127;-79
2022/01/18 07:50:23;;;;;;;35.60;11.25;;;;;;;0.18;78.89;102615.87;1786499;80;21735;-79
2022/01/18 07:52:50;;;;;;;32.53;12.50;;;;;;;0.16;78.92;102622.97;1786518;79;21237;-79
2022/01/18 07:55:17;;;;;;;30.45;12.15;;;;;;;0.06;78.96;102617.67;1786419;80;21088;-79
2022/01/18 07:57:44;;;;;;;31.12;11.63;;;;;;;0.14;78.98;102631.88;1786210;80;21076;-79
2022/01/18 08:00:13;;;;;;;29.52;15.55;;;;;;;0.12;78.92;102637.29;1746349;82;21069;-79
2022/01/18 08:02:40;;;;;;;29.85;12.88;;;;;;;0.11;79.00;102644.55;1746592;81;21787;-80
2022/01/18 08:05:09;;;;;;;27.58;14.18;;;;;;;0.12;79.04;102646.75;1746453;80;21627;-80
2022/01/18 08:07:35;;;;;;;29.98;12.98;;;;;;;0.10;79.06;102659.53;1746455;81;21058;-79
2022/01/18 08:10:04;;;;;;;36.28;13.22;;;;;;;0.11;79.13;102657.50;1746344;82;21050;-79
2022/01/18 08:12:30;;;;;;;27.35;12.20;;;;;;;0.13;79.16;102665.03;1716838;82;21178;-79
2022/01/18 08:15:02;;;;;;;27.75;11.40;;;;;;;0.16;79.27;102670.48;1746566;81;21724;-79
2022/01/18 08:17:25;;;;;;;25.90;10.45;;;;;;;0.22;79.31;102671.86;1745683;81;21042;-79
2022/01/18 08:19:52;;;;;;;23.60;10.30;;;;;;;0.32;79.41;102683.63;1746428;82;22410;-79
2022/01/18 08:22:19;;;;;;;22.85;9.23;;;;;;;0.40;79.41;102688.28;1746305;81;21764;-79
2022/01/18 08:24:45;;;;;;;23.12;10.63;;;;;;;0.47;79.38;102686.80;1746253;80;21137;-79
2022/01/18 08:27:12;;;;;;;25.80;10.90;;;;;;;0.53;79.34;102698.67;1746427;80;21716;-79
2022/01/18 08:29:39;;;;;;;26.27;11.03;;;;;;;0.61;79.31;102692.94;1746548;82;21039;-79
2022/01/18 08:32:09;;;;;;;26.20;10.70;;;;;;;0.68;79.29;102687.58;1746656;81;21050;-78
2022/01/18 08:34:36;;;;;;;29.57;10.68;;;;;;;0.78;79.22;102690.27;1746803;81;21249;-78
2022/01/18 08:37:06;;;;;;;25.88;10.65;;;;;;;0.87;79.21;102691.94;1746751;82;21611;-79
2022/01/18 08:39:31;;;;;;;28.60;10.30;;;;;;;0.98;79.24;102696.45;1745735;82;21653;-79
2022/01/18 08:41:58;;;;;;;25.68;11.22;;;;;;;1.08;79.13;102707.31;1746381;81;21083;-80
2022/01/18 08:44:24;;;;;;;26.35;11.57;;;;;;;1.18;79.04;102707.40;1746539;82;21062;-79
2022/01/18 08:46:51;;;;;;;25.95;11.95;;;;;;;1.30;79.03;102713.75;1746617;81;21018;-78
2022/01/18 08:49:18;;;;;;;25.17;12.35;;;;;;;1.39;78.90;102712.42;1746632;81;21113;-78
2022/01/18 08:51:45;;;;;;;26.23;12.95;;;;;;;1.47;78.88;102713.12;1746607;82;21722;-78
2022/01/18 08:54:12;;;;;;;26.93;11.60;;;;;;;1.57;78.79;102717.09;1746579;82;21142;-77
2022/01/18 08:56:38;;;;;;;27.95;12.47;;;;;;;1.66;78.68;102722.23;1746547;81;21086;-78
2022/01/18 08:59:05;;;;;;;25.10;10.45;;;;;;;1.75;78.63;102727.88;1746290;81;21054;-78
2022/01/18 09:01:32;;;;;;;26.52;11.68;;;;;;;1.84;78.43;102734.33;1746163;80;21055;-78
2022/01/18 09:04:01;;;;;;;23.22;10.75;;;;;;;1.86;78.28;102734.08;1746641;82;21738;-78
2022/01/18 09:06:29;;;;;;;36.90;11.70;;;;;;;1.89;78.13;102739.92;1746683;80;21735;-78
2022/01/18 09:08:56;;;;;;;24.92;10.55;;;;;;;1.89;78.01;102743.82;1746574;80;21094;-78
2022/01/18 09:11:24;;;;;;;25.75;9.45;;;;;;;1.89;77.99;102748.62;1746356;82;21568;-78
2022/01/18 09:13:52;;;;;;;21.48;9.35;;;;;;;1.88;77.93;102746.81;1746401;81;21063;-78
2022/01/18 09:16:21;;;;;;;24.18;9.35;;;;;;;1.91;77.98;102747.47;1746253;81;22554;-79
2022/01/18 09:18:48;;;;;;;26.27;9.58;;;;;;;1.94;78.01;102747.77;1746245;80;21118;-80
2022/01/18 09:21:15;;;;;;;23.50;10.20;;;;;;;1.97;77.97;102752.31;1746227;81;21062;-78
2022/01/18 09:23:42;;;;;;;19.60;8.30;;;;;;;2.00;77.98;102757.80;1746362;82;21611;-79
2022/01/18 09:26:09;;;;;;;16.85;8.05;;;;;;;2.02;77.90;102753.66;1746484;81;21528;-78
2022/01/18 09:28:36;;;;;;;21.30;8.30;;;;;;;2.04;77.90;102760.80;1746242;80;21818;-79
2022/01/18 09:31:02;;;;;;;16.82;7.78;;;;;;;2.06;77.90;102755.36;1746183;80;21097;-78
2022/01/18 09:33:29;;;;;;;22.73;8.40;;;;;;;2.11;77.90;102764.50;1746062;80;21052;-79
2022/01/18 09:35:56;;;;;;;20.02;7.92;;;;;;;2.13;77.84;102760.34;1746216;81;21595;-79
2022/01/18 09:38:24;;;;;;;19.20;7.10;;;;;;;2.17;77.77;102768.44;1745424;80;21118;-79
2022/01/18 09:40:51;;;;;;;16.90;6.53;;;;;;;2.12;77.71;102751.11;1746283;80;21632;-79
2022/01/18 09:43:18;;;;;;;17.25;7.08;;;;;;;2.23;77.69;102769.89;1746130;80;21049;-79
2022/01/18 09:45:45;;;;;;;17.57;7.50;;;;;;;2.26;77.66;102762.39;1746375;80;21078;-79
2022/01/18 09:48:13;;;;;;;14.25;6.75;;;;;;;2.32;77.65;102765.92;1746477;80;21050;-79
2022/01/18 09:50:41;;;;;;;14.63;6.90;;;;;;;2.36;77.58;102761.92;1746448;80;21066;-79
2022/01/18 09:53:11;;;;;;;13.45;7.08;;;;;;;2.39;77.53;102759.22;1746344;80;21805;-79
2022/01/18 09:55:38;;;;;;;16.05;6.30;;;;;;;2.23;77.41;102724.81;1746183;80;21130;-79
2022/01/18 09:58:06;;;;;;;16.97;6.33;;;;;;;2.46;77.39;102769.39;1746208;80;21098;-79
2022/01/18 10:00:38;;;;;;;14.13;6.28;;;;;;;2.48;77.30;102763.95;1752946;80;21049;-79
2022/01/18 10:03:09;;;;;;;16.00;5.87;;;;;;;2.52;77.30;102769.94;1754847;81;21081;-79
2022/01/18 10:05:35;;;;;;;14.73;5.67;;;;;;;2.56;77.30;102771.12;1754792;80;21665;-79
2022/01/18 10:08:12;;;;;;;13.20;6.22;;;;;;;2.59;77.23;102772.72;1755333;80;21552;-79
2022/01/18 10:10:39;;;;;;;16.00;5.97;;;;;;;2.61;77.17;102767.62;1754759;80;21085;-79
2022/01/18 10:13:06;;;;;;;16.48;5.62;;;;;;;2.64;77.16;102773.11;1755226;81;21062;-78
2022/01/18 10:15:33;;;;;;;15.72;6.33;;;;;;;2.67;77.08;102779.90;1755131;80;21077;-79
2022/01/18 10:18:04;;;;;;;14.60;5.35;;;;;;;2.68;77.04;102781.70;1755522;80;21830;-79
2022/01/18 10:20:31;;;;;;;15.85;5.53;;;;;;;2.71;77.04;102784.59;1755213;81;21074;-79
2022/01/18 10:23:00;;;;;;;15.10;6.08;;;;;;;2.73;77.00;102780.04;1755228;80;21065;-79
2022/01/18 10:25:29;;;;;;;15.03;6.15;;;;;;;2.76;76.89;102789.83;1754425;80;21054;-79
2022/01/18 10:27:56;;;;;;;14.18;5.95;;;;;;;2.76;76.91;102789.83;1729440;81;21049;-79
2022/01/18 10:30:38;;;;;;;14.18;5.42;;;;;;;2.77;76.72;102790.73;1754995;80;21809;-79
2022/01/18 10:33:17;;;;;;;15.75;5.85;;;;;;;2.77;76.81;102794.23;1753363;80;21595;-79
2022/01/18 10:36:14;;;;;;;11.85;4.90;;;;;;;2.81;76.85;102798.92;1755074;81;21089;-79
2022/01/18 10:38:45;;;;;;;11.97;5.00;;;;;;;2.84;76.77;102794.01;1754848;81;21062;-79
2022/01/18 10:41:33;;;;;;;11.48;4.80;;;;;;;2.88;76.68;102795.20;1754959;80;21100;-79
2022/01/18 10:44:13;;;;;;;13.43;4.78;;;;;;;2.90;76.68;102795.84;1755061;81;22572;-79
2022/01/18 10:46:55;;;;;;;8.35;3.92;;;;;;;2.96;76.62;102794.57;1755062;81;21053;-79
2022/01/18 10:49:39;;;;;;;13.13;4.40;;;;;;;2.98;76.53;102785.21;1754827;81;21089;-79
2022/01/18 10:52:10;;;;;;;14.55;3.80;;;;;;;2.99;76.36;102785.75;1697435;83;21069;-80
2022/01/18 10:54:47;;;;;;;9.73;3.70;;;;;;;2.98;76.31;102785.21;1784161;80;21681;-80
2022/01/18 10:57:28;;;;;;;14.83;4.53;;;;;;;2.99;76.39;102787.05;1784193;80;21690;-79
2022/01/18 11:00:14;;;;;;;16.12;4.28;;;;;;;3.01;76.30;102792.00;1750766;80;21027;-79
2022/01/18 11:02:42;;;;;;;8.88;4.30;;;;;;;3.04;76.30;102795.78;1738532;80;21576;-80
2022/01/18 11:05:25;;;;;;;10.25;3.80;;;;;;;3.08;76.17;102800.88;1746346;82;21097;-79
2022/01/18 11:07:53;;;;;;;10.20;3.97;;;;;;;3.11;76.03;102795.92;1746699;80;21062;-79
2022/01/18 11:10:22;;;;;;;8.08;3.83;;;;;;;3.11;75.90;102790.31;1746403;80;21999;-79
2022/01/18 11:13:04;;;;;;;9.48;3.55;;;;;;;3.13;75.93;102794.76;1745619;80;21078;-79
2022/01/18 11:15:37;;;;;;;14.30;4.37;;;;;;;3.14;75.91;102792.30;1746768;80;21087;-79
2022/01/18 11:18:13;;;;;;;11.63;3.27;;;;;;;3.16;75.76;102780.73;1746745;80;21038;-79
2022/01/18 11:20:42;;;;;;;8.50;3.35;;;;;;;3.16;75.69;102771.22;1745178;81;21070;-79
2022/01/18 11:23:08;;;;;;;7.40;3.50;;;;;;;3.18;75.59;102765.76;1746439;81;22616;-79
2022/01/18 11:25:36;;;;;;;7.47;2.92;;;;;;;3.17;75.59;102758.71;1746406;81;21069;-79
2022/01/18 11:28:06;;;;;;;11.50;3.20;;;;;;;3.20;75.51;102759.00;1746460;80;21714;-79
2022/01/18 11:30:40;;;;;;;13.25;4.03;;;;;;;3.22;75.45;102756.53;1711264;82;21050;-79
2022/01/18 11:33:09;;;;;;;9.28;3.35;;;;;;;3.24;75.29;102753.67;1746735;81;21567;-79
2022/01/18 11:35:56;;;;;;;7.62;3.00;;;;;;;3.26;75.17;102748.20;1746534;80;21743;-79
2022/01/18 11:38:42;;;;;;;8.00;3.30;;;;;;;3.26;75.05;102757.31;1746569;81;21050;-79
2022/01/18 11:41:21;;;;;;;9.83;3.25;;;;;;;3.26;74.99;102766.02;1746459;81;21129;-79
2022/01/18 11:43:51;;;;;;;10.38;3.40;;;;;;;3.27;74.86;102769.16;1744813;81;21087;-79
2022/01/18 11:46:26;;;;;;;9.25;3.37;;;;;;;3.27;74.90;102768.27;1746299;81;21042;-79
2022/01/18 11:49:22;;;;;;;8.28;3.72;;;;;;;3.28;74.88;102769.70;1746346;81;22550;-79
2022/01/18 11:51:56;;;;;;;11.78;3.20;;;;;;;3.30;74.75;102768.50;1746034;82;21746;-79
2022/01/18 11:54:56;;;;;;;14.70;3.45;;;;;;;3.31;74.59;102771.25;1746013;82;21175;-79
2022/01/18 11:57:29;;;;;;;5.42;2.75;;;;;;;3.29;74.44;102774.11;1743831;80;21109;-79
2022/01/18 12:00:13;;;;;;;7.83;3.35;;;;;;;3.29;74.35;102771.51;1746289;80;21039;-79
2022/01/18 12:02:42;;;;;;;10.30;4.22;;;;;;;3.28;74.35;102773.61;1746136;81;21891;-79
2022/01/18 12:05:14;;;;;;;9.70;3.67;;;;;;;3.29;74.27;102771.91;1746161;80;20999;-79
2022/01/18 12:07:47;;;;;;;12.15;3.90;;;;;;;3.28;74.22;102773.61;1746005;80;21556;-79
2022/01/18 12:10:34;;;;;;;8.40;3.83;;;;;;;3.29;74.14;102770.20;1746355;80;21078;-79
2022/01/18 12:13:05;;;;;;;14.00;4.85;;;;;;;3.29;74.00;102770.20;1745702;80;21634;-79
2022/01/18 12:15:45;;;;;;;11.63;4.15;;;;;;;3.31;73.89;102769.05;1746497;80;21762;-79
2022/01/18 12:18:19;;;;;;;10.45;4.08;;;;;;;3.31;73.92;102769.95;1746083;80;21070;-79
2022/01/18 12:20:50;;;;;;;8.48;3.85;;;;;;;3.36;74.00;102762.92;1746267;81;21054;-79
2022/01/18 12:23:23;;;;;;;6.50;3.52;;;;;;;3.38;73.83;102763.95;1746330;81;21097;-78
2022/01/18 12:25:59;;;;;;;;;;;;;;;3.29;73.74;102744.18;1748798;82;21077;-78
2022/01/18 12:34:37;;;;;;;9.03;3.42;;;;;;;3.40;73.56;102766.34;1716544;82;21114;-80
2022/01/18 12:37:24;;;;;;;12.53;3.70;;;;;;;3.40;73.54;102759.83;1746997;80;21592;-80
2022/01/18 12:45:22;;;;;;;10.00;3.55;;;;;;;3.40;73.13;102771.55;1746479;80;21118;-80
2022/01/18 12:48:09;;;;;;;8.20;3.85;;;;;;;3.40;73.01;102776.75;1746961;81;21533;-79
2022/01/18 12:50:48;;;;;;;9.40;3.77;;;;;;;3.39;73.01;102781.42;1746511;81;21683;-78
2022/01/18 12:53:21;;;;;;;14.30;3.77;;;;;;;3.37;72.94;102786.48;1746340;80;21058;-78
2022/01/18 12:55:57;;;;;;;7.35;3.50;;;;;;;3.40;72.76;102789.37;1746288;82;21750;-78
2022/01/18 12:58:45;;;;;;;7.85;3.25;;;;;;;3.39;72.72;102784.92;1746239;80;21085;-78